Vers la page d'accueil de NAV CANADA Ouverture d'une nouvelle session Chercher sur le site AWWS Clause de non-reponsabilité To the equivalent English page Trucs et astuces FAQ Quoi de neuf sur le site Vers la section Prévisions et observations / NOTAM Vers le site web pour <<Déposer un plan de vol>> Publications et liens importants Mise à jour du profil d'usager Numéros de téléphone des FIC Mes données météo personnelles Données météo de route Données météo régionales Données météo locales Vers la section Prévisions et observations / NOTAM
Requête générée le 2021/09/16 à 15:59:47 UTC. L'information météorologique disponible à ce moment est affichée.

METAR/TAF

Si vous notez des différences entre le METAR/TAF codé et le METAR/TAF en langage clair, veuillez utiliser la version codée. Les bulletins LWIS ne sont pas décodés en langage clair.

QUEBEC/JEAN LESAGE INTL/QC    (voir Cam météo)

METAR CYQB 161500Z 18008KT 30SM FEW025 SCT250 16/12 A3027 RMK CF1CI3 SLP254=
METAR
LIEU
CYQB - QUEBEC/JEAN LESAGE INTL/QC
DATE - HEURE
16 SEPTEMBRE 2021 - 1500 UTC
VENT
180 VRAIS @ 8  NOEUDS
VISIBILITE
30 MILLES TERR.
PORTEE VISUELLE DE PISTE
METEO
NEBULOSITE
QUELQUES NUAGES (1/8 - 2/8) 2500  PI
NUAGES EPARS (3/8 - 4/8) 25000  PI
TEMP / PT DE ROSEE
16 C / 12 C
ALTIMETRE
30.27 PO HG
TEMPS RECENT
CISAILLEMENT

METAR CYQB 161400Z 26004KT 30SM FEW020 FEW250 16/12 A3027 RMK SC1CI1 SC TR SLP2 =
METAR
LIEU
CYQB - QUEBEC/JEAN LESAGE INTL/QC
DATE - HEURE
16 SEPTEMBRE 2021 - 1400 UTC
VENT
260 VRAIS @ 4  NOEUDS
VISIBILITE
30 MILLES TERR.
PORTEE VISUELLE DE PISTE
METEO
NEBULOSITE
QUELQUES NUAGES (1/8 - 2/8) 2000  PI
QUELQUES NUAGES (1/8 - 2/8) 25000  PI
TEMP / PT DE ROSEE
16 C / 12 C
ALTIMETRE
30.27 PO HG
TEMPS RECENT
CISAILLEMENT

METAR CYQB 161300Z 25004KT 30SM FEW015 FEW250 14/11 A3027 RMK SF1CI1 SF TR SLP2 =
METAR
LIEU
CYQB - QUEBEC/JEAN LESAGE INTL/QC
DATE - HEURE
16 SEPTEMBRE 2021 - 1300 UTC
VENT
250 VRAIS @ 4  NOEUDS
VISIBILITE
30 MILLES TERR.
PORTEE VISUELLE DE PISTE
METEO
NEBULOSITE
QUELQUES NUAGES (1/8 - 2/8) 1500  PI
QUELQUES NUAGES (1/8 - 2/8) 25000  PI
TEMP / PT DE ROSEE
14 C / 11 C
ALTIMETRE
30.27 PO HG
TEMPS RECENT
CISAILLEMENT

TAF CYQB 161138Z 1612/1712 VRB03KT P6SM SKC BECMG 1614/1616 23008KT FM170600 VRB03KT P6SM SKC PROB30 1706/1712 1SM BR RMK NXT FCST BY 161800Z=
TAF
LIEU

CYQB - QUEBEC/JEAN LESAGE INTL/QC
VALIDITE [UTC]
16 SEP - 1138 à
17 SEP - 1200
 
PERIODES
[UTC]
VENT
[DEGRES VRAIS]
VISIBILITE
[MILLES TERR.]
METEO
NEBULOSITE
[PIEDS AGL]
 
16 SEP - 1200 à
17 SEP - 0600
VARIABLE @ 3 NOEUDS
6+
---
CIEL DEGAGE
CHANGEMENTS GRADUELS
16 SEP - 1400 à
16 SEP - 1600
230 @ 8 NOEUDS
 
 
 
 
17 SEP - 0600 à
17 SEP - 1200
VARIABLE @ 3 NOEUDS
6+
---
CIEL DEGAGE
30% PROBABILITE
17 SEP - 0600 à
17 SEP - 1200
 
1
BRUME
 
REMARQUES
LA PREVISION SUIVANTE SERA EMISE POUR 1800 UTC LE 16


Votre heure Heure UTC
Données météorologiques fournies par Environnement Canada et NAV CANADA